Time;durP1;ratioP1;P1;durP2;ratioP2;P2;SDS_P1;SDS_P2;PMS_P1;PMS_P2;Temp;Humidity;BMP_temperature;BMP_pressure;BME280_temperature;BME280_humidity;BME280_pressure;Samples;Min_cycle;Max_cycle;Signal;HPM_P1;HPM_P2
2022/09/28 00:03:13;;;;;;;6.00;4.90;;;;;;;10.66;81.79;98109.05;214315;1276;141825;-67
2022/09/28 00:08:18;;;;;;;6.40;4.70;;;;;;;10.59;81.80;98098.48;214347;1276;141858;-66
2022/09/28 00:13:22;;;;;;;4.80;4.20;;;;;;;10.51;81.73;98095.15;213187;1276;141494;-66
2022/09/28 00:18:26;;;;;;;6.60;4.80;;;;;;;10.45;81.74;98092.98;213989;1276;141845;-67
2022/09/28 00:23:28;;;;;;;4.80;4.30;;;;;;;10.45;81.96;98085.95;215716;1276;141342;-69
2022/09/28 00:28:32;;;;;;;6.20;5.20;;;;;;;10.43;81.72;98092.89;215105;1276;141668;-66
2022/09/28 00:33:35;;;;;;;5.40;4.60;;;;;;;10.43;81.87;98091.02;216063;1276;141394;-67
2022/09/28 00:38:39;;;;;;;3.10;2.70;;;;;;;10.41;81.78;98091.61;216087;1277;140652;-67
2022/09/28 00:43:42;;;;;;;3.80;3.30;;;;;;;10.37;81.65;98089.04;215990;1276;142271;-67
2022/09/28 00:48:55;;;;;;;4.60;4.20;;;;;;;10.30;81.47;98085.14;215832;1276;141683;-67
2022/09/28 00:54:01;;;;;;;4.50;4.00;;;;;;;10.22;81.58;98086.27;215404;1275;141118;-67
2022/09/28 00:59:04;;;;;;;5.90;4.40;;;;;;;10.21;81.68;98082.49;215284;1277;141415;-67
2022/09/28 01:04:07;;;;;;;5.80;4.40;;;;;;;10.24;81.75;98082.96;215391;1277;140343;-67
2022/09/28 01:09:13;;;;;;;4.10;3.50;;;;;;;10.19;81.65;98082.80;214578;1276;141376;-67
2022/09/28 01:14:17;;;;;;;5.30;4.00;;;;;;;10.15;81.76;98083.71;214465;1276;152821;-68
2022/09/28 01:19:33;;;;;;;4.50;4.00;;;;;;;10.10;81.61;98086.34;214677;1277;141118;-67
2022/09/28 01:24:56;;;;;;;3.50;3.20;;;;;;;10.10;81.72;98076.05;213212;1276;145553;-67
2022/09/28 01:29:59;;;;;;;4.70;4.30;;;;;;;10.13;81.95;98072.80;214071;1276;141824;-66
2022/09/28 01:35:38;;;;;;;5.80;4.00;;;;;;;10.10;81.78;98072.71;213891;1276;141276;-67
2022/09/28 01:40:44;;;;;;;3.50;3.20;;;;;;;10.00;81.66;98073.81;213173;1277;140492;-67
2022/09/28 01:45:52;;;;;;;7.40;4.10;;;;;;;9.84;81.43;98061.23;213644;1276;141738;-66
2022/09/28 01:51:02;;;;;;;5.10;4.40;;;;;;;9.78;81.73;98061.20;213199;1276;142530;-66
2022/09/28 01:56:23;;;;;;;3.70;3.30;;;;;;;9.74;81.70;98055.00;213987;1276;141638;-67
2022/09/28 02:01:43;;;;;;;3.90;3.20;;;;;;;9.69;81.61;98053.41;213189;1276;141394;-66
2022/09/28 02:07:09;;;;;;;4.70;3.70;;;;;;;9.61;81.69;98053.09;213014;1276;143853;-67
2022/09/28 02:12:29;;;;;;;4.40;4.00;;;;;;;9.56;81.71;98049.23;214125;1276;140828;-67
2022/09/28 02:17:32;;;;;;;5.90;3.70;;;;;;;9.50;81.52;98054.61;212938;1276;142821;-66
2022/09/28 02:22:54;;;;;;;6.90;3.40;;;;;;;9.41;81.59;98056.97;214619;1276;140804;-67
2022/09/28 02:28:01;;;;;;;3.90;3.50;;;;;;;9.30;81.53;98067.17;213654;1276;140968;-67
2022/09/28 02:33:12;;;;;;;5.60;3.70;;;;;;;9.28;82.10;98076.00;214692;1276;140438;-67
2022/09/28 02:38:16;;;;;;;5.60;4.30;;;;;;;9.29;82.27;98080.69;215658;1276;141113;-67
2022/09/28 02:43:33;;;;;;;4.60;3.20;;;;;;;9.32;81.96;98081.91;215529;1276;142031;-67
2022/09/28 02:49:15;;;;;;;4.60;3.70;;;;;;;9.36;81.75;98083.56;215995;1276;140461;-67
2022/09/28 02:55:02;;;;;;;10.80;4.20;;;;;;;9.23;81.43;98084.19;215921;1276;141044;-67
2022/09/28 03:00:14;;;;;;;4.40;4.10;;;;;;;9.10;81.38;98092.60;215816;1275;140242;-67
2022/09/28 03:05:29;;;;;;;5.50;3.80;;;;;;;9.03;81.56;98094.98;214941;1277;139907;-66
2022/09/28 03:11:12;;;;;;;6.80;4.90;;;;;;;9.04;81.38;98095.99;214561;1276;141886;-67
2022/09/28 03:16:18;;;;;;;5.40;3.70;;;;;;;9.03;81.56;98092.70;214492;1276;139999;-66
2022/09/28 03:21:22;;;;;;;4.90;4.40;;;;;;;8.96;81.54;98092.15;213369;1276;139747;-67
2022/09/28 03:26:25;;;;;;;5.10;4.60;;;;;;;8.88;81.70;98093.30;214173;1276;139543;-67
2022/09/28 03:31:27;;;;;;;6.80;5.00;;;;;;;8.89;81.86;98095.11;213528;1276;141387;-66
2022/09/28 03:36:29;;;;;;;7.20;4.50;;;;;;;8.87;82.19;98097.14;213655;1276;140126;-67
2022/09/28 03:41:32;;;;;;;5.20;3.40;;;;;;;8.86;81.92;98098.90;214646;1276;140322;-67
2022/09/28 03:46:35;;;;;;;4.50;4.00;;;;;;;8.81;81.85;98102.08;214641;1276;140322;-66
2022/09/28 03:51:38;;;;;;;4.20;3.80;;;;;;;8.68;81.38;98101.08;213534;1276;140406;-66
2022/09/28 03:56:41;;;;;;;8.30;4.20;;;;;;;8.49;81.49;98097.48;213806;1276;140414;-67
2022/09/28 04:01:44;;;;;;;8.80;4.10;;;;;;;8.36;81.44;98095.18;213781;1276;140817;-66
2022/09/28 04:06:46;;;;;;;8.30;4.90;;;;;;;8.24;81.39;98098.89;213410;1276;143491;-67
2022/09/28 04:11:49;;;;;;;5.90;4.00;;;;;;;8.08;81.48;98096.86;214101;1275;141081;-66
2022/09/28 04:17:06;;;;;;;6.00;5.20;;;;;;;7.91;81.54;98095.55;213291;1276;140780;-66
2022/09/28 04:22:09;;;;;;;8.50;4.20;;;;;;;7.85;81.94;98097.27;212979;1276;144929;-65
2022/09/28 04:32:33;;;;;;;7.80;6.50;;;;;;;7.71;81.70;98102.05;213078;1276;143314;-66
2022/09/28 04:37:36;;;;;;;16.70;7.80;;;;;;;7.64;81.46;98100.10;214737;1276;140592;-66
2022/09/28 04:42:38;;;;;;;7.10;5.30;;;;;;;7.61;82.36;98103.12;215422;1276;141628;-67
2022/09/28 04:47:41;;;;;;;6.20;5.60;;;;;;;7.62;81.82;98104.88;215745;1275;142108;-66
2022/09/28 04:52:44;;;;;;;7.20;4.40;;;;;;;7.56;81.85;98101.98;215815;1276;140712;-67
2022/09/28 04:57:48;;;;;;;5.30;4.80;;;;;;;7.57;81.91;98108.02;215733;1276;140837;-67
2022/09/28 05:02:50;;;;;;;7.20;5.20;;;;;;;7.60;81.76;98111.64;215085;1276;141659;-67
2022/09/28 05:07:57;;;;;;;5.10;4.60;;;;;;;7.56;81.75;98112.30;213591;1276;141264;-66
2022/09/28 05:13:01;;;;;;;7.10;5.40;;;;;;;7.52;82.14;98120.97;213026;1276;142971;-66
2022/09/28 05:18:05;;;;;;;7.10;5.30;;;;;;;7.51;81.94;98120.49;215691;1276;140519;-68
2022/09/28 05:23:12;;;;;;;11.00;6.20;;;;;;;7.57;82.63;98120.16;214122;1276;153628;-67
2022/09/28 05:28:22;;;;;;;6.10;5.20;;;;;;;7.67;82.34;98114.06;213072;1276;144645;-66
2022/09/28 05:33:26;;;;;;;7.00;5.10;;;;;;;7.77;82.51;98110.00;214027;1274;141001;-67
2022/09/28 05:38:30;;;;;;;8.60;5.50;;;;;;;7.80;82.55;98107.48;214724;1276;140052;-68
2022/09/28 05:43:33;;;;;;;7.00;5.40;;;;;;;7.89;82.65;98108.02;213032;1276;139675;-67
2022/09/28 05:48:36;;;;;;;7.80;5.10;;;;;;;8.02;83.25;98109.08;213346;1276;141954;-68
2022/09/28 05:53:38;;;;;;;12.10;6.50;;;;;;;8.17;83.21;98106.14;213993;1276;141665;-65
2022/09/28 05:58:41;;;;;;;10.10;6.30;;;;;;;8.32;83.14;98107.80;213032;1276;141699;-65
2022/09/28 06:03:44;;;;;;;6.80;5.00;;;;;;;8.50;83.12;98096.27;213136;1276;139968;-66
2022/09/28 06:08:47;;;;;;;7.20;4.40;;;;;;;8.59;82.79;98095.95;213119;1276;140264;-65
2022/09/28 06:13:54;;;;;;;5.90;5.30;;;;;;;8.69;83.14;98093.54;213836;1275;141280;-66
2022/09/28 06:18:58;;;;;;;6.60;5.30;;;;;;;8.85;83.32;98091.34;214448;1275;141973;-67
2022/09/28 06:24:02;;;;;;;8.70;5.20;;;;;;;9.09;83.52;98094.46;213177;1276;140926;-66
2022/09/28 06:29:05;;;;;;;9.20;4.70;;;;;;;9.35;83.36;98091.80;213645;1276;139804;-66
2022/09/28 06:34:08;;;;;;;4.20;3.80;;;;;;;9.67;83.52;98093.63;214871;1276;140558;-66
2022/09/28 06:39:10;;;;;;;5.20;4.50;;;;;;;10.08;83.27;98095.45;215644;1276;140472;-67
2022/09/28 06:44:13;;;;;;;4.30;3.70;;;;;;;10.45;82.67;98099.97;215786;1276;140826;-68
2022/09/28 06:49:20;;;;;;;3.80;3.20;;;;;;;10.68;82.16;98101.89;215602;1275;140844;-67
2022/09/28 06:54:24;;;;;;;8.40;4.40;;;;;;;10.84;81.31;98103.81;215662;1276;141447;-67
2022/09/28 06:59:28;;;;;;;6.50;3.70;;;;;;;10.97;80.94;98105.94;215725;1276;141705;-65
2022/09/28 07:04:32;;;;;;;7.00;4.30;;;;;;;11.12;81.00;98109.88;214661;1275;139739;-65
2022/09/28 07:09:36;;;;;;;7.60;4.40;;;;;;;11.22;80.19;98111.52;213952;1276;140727;-65
2022/09/28 07:14:48;;;;;;;6.20;4.00;;;;;;;11.26;80.21;98109.98;213694;1276;141512;-64
2022/09/28 07:19:57;;;;;;;5.50;3.70;;;;;;;11.44;80.30;98108.88;213717;1276;139958;-66
2022/09/28 07:25:08;;;;;;;4.90;4.20;;;;;;;11.64;80.04;98112.70;213525;1276;140183;-65
2022/09/28 07:30:12;;;;;;;6.70;4.40;;;;;;;11.89;79.95;98110.80;214723;1276;140804;-65
2022/09/28 07:35:19;;;;;;;;;;;;;;;12.04;79.43;98105.08;213276;1276;141743;-66
2022/09/28 07:45:54;;;;;;;;;;;;;;;12.36;78.75;98100.81;213838;1276;140193;-67
2022/09/28 07:50:58;;;;;;;3.90;3.40;;;;;;;12.92;79.78;98095.20;213519;1276;127379;-66
2022/09/28 07:56:07;;;;;;;8.60;4.00;;;;;;;13.49;79.71;98098.90;213841;1276;140103;-66
2022/09/28 08:01:13;;;;;;;6.90;3.50;;;;;;;13.85;78.40;98106.26;213852;1276;140833;-66
2022/09/28 08:06:17;;;;;;;6.40;4.30;;;;;;;13.84;77.31;98108.98;213900;1277;140196;-67
2022/09/28 08:11:20;;;;;;;4.90;4.30;;;;;;;13.83;76.91;98103.81;214612;1276;142058;-67
2022/09/28 08:16:23;;;;;;;5.90;5.30;;;;;;;14.01;77.04;98098.84;213392;1276;145638;-67
2022/09/28 08:21:44;;;;;;;3.90;3.30;;;;;;;14.51;77.26;98103.98;214448;1276;140712;-66
2022/09/28 08:26:49;;;;;;;4.10;3.80;;;;;;;15.02;76.62;98105.19;215545;1276;143638;-66
2022/09/28 08:31:51;;;;;;;5.40;3.00;;;;;;;15.33;75.59;98099.04;213053;1276;143022;-65
2022/09/28 08:36:58;;;;;;;3.50;2.50;;;;;;;15.42;74.90;98099.73;214909;1275;140829;-67
2022/09/28 08:42:28;;;;;;;5.60;3.20;;;;;;;15.29;73.39;98098.67;215857;1276;143421;-67
2022/09/28 08:53:31;;;;;;;3.80;2.30;;;;;;;15.64;72.63;98097.11;213625;1276;141667;-66
2022/09/28 08:58:39;;;;;;;2.40;2.10;;;;;;;15.75;72.21;98099.96;214096;1276;141358;-65
2022/09/28 09:03:44;;;;;;;;;;;;;;;15.59;71.12;98104.31;214946;1276;141442;-65
2022/09/28 09:09:10;;;;;;;2.70;2.40;;;;;;;15.04;70.33;98110.09;214233;1273;126410;-66
2022/09/28 09:14:34;;;;;;;1.80;1.70;;;;;;;14.81;70.76;98107.15;214590;1274;140337;-67
2022/09/28 09:20:04;;;;;;;2.60;2.30;;;;;;;14.69;70.60;98104.95;214295;1274;141494;-66
2022/09/28 09:25:18;;;;;;;1.40;1.20;;;;;;;14.66;70.35;98106.95;214522;1275;152775;-65
2022/09/28 09:30:23;;;;;;;1.80;1.30;;;;;;;14.67;70.08;98110.35;214132;1275;251402;-66
2022/09/28 09:35:54;;;;;;;3.20;2.50;;;;;;;15.16;70.52;98109.90;214290;1276;151524;-65
2022/09/28 09:41:10;;;;;;;1.80;1.60;;;;;;;15.30;68.77;98106.20;213975;1276;140187;-66
2022/09/28 09:46:29;;;;;;;2.40;2.00;;;;;;;14.87;68.51;98105.31;213788;1276;151224;-65
2022/09/28 09:52:03;;;;;;;4.00;2.40;;;;;;;15.05;69.31;98093.65;214171;1276;140681;-66
2022/09/28 09:57:16;;;;;;;3.50;2.00;;;;;;;15.51;68.80;98090.92;212309;1276;1200784;-66
2022/09/28 10:02:28;;;;;;;5.00;1.90;;;;;;;15.43;67.91;98090.69;214966;1274;141364;-66
2022/09/28 10:07:53;;;;;;;6.80;2.70;;;;;;;15.58;68.19;98100.05;212966;1276;139869;-65
2022/09/28 10:12:57;;;;;;;4.40;2.70;;;;;;;15.55;67.46;98100.95;213112;1276;139915;-65
2022/09/28 10:18:09;;;;;;;2.20;2.00;;;;;;;15.62;67.14;98098.09;214043;1276;140282;-66
2022/09/28 10:23:24;;;;;;;4.10;2.90;;;;;;;15.78;67.43;98099.36;214177;1276;139746;-66
2022/09/28 10:28:46;;;;;;;2.10;2.00;;;;;;;15.81;67.13;98103.79;213177;1276;139728;-66
2022/09/28 10:33:52;;;;;;;2.80;2.00;;;;;;;16.29;67.07;98099.25;214847;1276;140082;-66
2022/09/28 10:38:56;;;;;;;3.80;2.40;;;;;;;16.23;65.69;98098.89;215958;1274;140249;-66
2022/09/28 10:44:06;;;;;;;2.20;2.00;;;;;;;15.81;65.02;98098.88;215809;1276;139579;-66
2022/09/28 10:49:16;;;;;;;2.30;2.20;;;;;;;15.69;65.28;98097.42;215596;1274;140038;-66
2022/09/28 10:54:24;;;;;;;5.50;2.50;;;;;;;16.10;65.54;98097.04;214563;1276;141241;-67
2022/09/28 10:59:36;;;;;;;2.00;1.90;;;;;;;16.60;64.89;98092.20;215911;1276;140197;-67
2022/09/28 11:04:44;;;;;;;2.00;1.90;;;;;;;16.76;63.71;98087.28;214604;1275;139762;-66
2022/09/28 11:09:53;;;;;;;1.60;1.60;;;;;;;16.60;63.00;98082.25;214048;1275;139394;-66
2022/09/28 11:15:06;;;;;;;1.00;1.00;;;;;;;16.64;63.11;98084.61;214053;1275;231303;-66
2022/09/28 11:20:25;;;;;;;1.50;1.50;;;;;;;16.14;61.79;98090.95;214609;1276;140268;-66
2022/09/28 11:25:31;;;;;;;0.90;0.90;;;;;;;15.55;62.00;98093.52;213838;1276;140184;-66
2022/09/28 11:30:52;;;;;;;1.10;1.10;;;;;;;15.26;62.15;98097.08;213474;1276;142196;-66
2022/09/28 11:36:13;;;;;;;1.20;1.20;;;;;;;15.12;62.86;98098.25;214270;1275;140939;-67
2022/09/28 11:41:37;;;;;;;1.30;1.20;;;;;;;15.45;63.31;98096.54;213303;1276;140882;-66
2022/09/28 11:47:15;;;;;;;1.70;0.90;;;;;;;15.31;62.78;98096.31;213450;1276;142354;-67
2022/09/28 11:52:27;;;;;;;1.20;1.20;;;;;;;15.05;62.98;98095.77;213868;1276;141128;-65
2022/09/28 11:57:40;;;;;;;3.40;1.50;;;;;;;15.24;63.35;98092.83;213300;1276;141709;-65
2022/09/28 12:02:53;;;;;;;1.00;0.90;;;;;;;15.91;63.21;98085.29;214437;1276;140161;-65
2022/09/28 12:08:03;;;;;;;1.40;1.30;;;;;;;16.40;62.51;98071.90;214530;1276;139551;-66
2022/09/28 12:13:19;;;;;;;1.80;1.70;;;;;;;16.39;61.35;98076.76;214395;1276;139335;-66
2022/09/28 12:19:03;;;;;;;1.10;1.10;;;;;;;15.76;60.46;98083.52;214587;1276;140613;-66
2022/09/28 12:24:43;;;;;;;1.00;0.90;;;;;;;15.18;60.83;98092.58;215269;1275;140135;-66
2022/09/28 12:30:18;;;;;;;1.10;0.90;;;;;;;14.94;61.21;98089.34;213812;1275;140573;-65
2022/09/28 12:35:48;;;;;;;1.10;1.10;;;;;;;14.72;61.26;98084.34;215444;1276;140300;-67
2022/09/28 12:41:15;;;;;;;1.30;1.20;;;;;;;14.40;61.04;98084.20;214971;1276;140761;-69
2022/09/28 12:46:36;;;;;;;1.00;1.00;;;;;;;14.26;61.44;98082.50;215974;1276;140115;-66
2022/09/28 12:52:18;;;;;;;1.60;0.90;;;;;;;14.23;61.71;98074.73;216035;1275;141454;-68
2022/09/28 12:57:48;;;;;;;1.10;0.90;;;;;;;14.30;61.82;98063.22;215042;1275;139494;-65
2022/09/28 13:03:15;;;;;;;2.10;1.00;;;;;;;14.31;61.90;98059.66;214745;1276;140112;-66
2022/09/28 13:08:32;;;;;;;1.00;1.00;;;;;;;14.30;61.71;98045.48;215347;1276;206465;-67
2022/09/28 13:13:37;;;;;;;1.60;1.40;;;;;;;14.34;62.36;98043.79;213681;1273;141011;-65
2022/09/28 13:19:16;;;;;;;1.50;1.30;;;;;;;14.52;62.42;98048.04;212859;1276;140571;-68
2022/09/28 13:24:27;;;;;;;2.40;1.10;;;;;;;14.66;62.30;98047.41;214305;1276;142077;-70
2022/09/28 13:29:38;;;;;;;1.00;1.00;;;;;;;14.60;62.14;98045.19;213050;1276;140497;-68
2022/09/28 13:34:49;;;;;;;0.90;0.90;;;;;;;14.54;62.14;98050.41;213254;1276;141594;-69
2022/09/28 13:40:04;;;;;;;1.40;1.20;;;;;;;14.35;62.08;98048.16;213351;1276;139962;-66
2022/09/28 13:45:20;;;;;;;1.10;1.10;;;;;;;14.20;62.21;98040.84;213249;1276;141392;-67
2022/09/28 13:50:37;;;;;;;1.10;1.10;;;;;;;14.08;62.66;98039.06;213735;1276;141583;-68
2022/09/28 13:55:49;;;;;;;2.30;1.30;;;;;;;14.05;62.62;98051.68;213145;1276;144905;-68
2022/09/28 14:01:10;;;;;;;1.20;1.00;;;;;;;13.90;62.07;98056.07;213125;1276;142109;-69
2022/09/28 14:06:29;;;;;;;1.90;1.10;;;;;;;13.68;62.25;98039.67;213428;1276;140000;-67
2022/09/28 14:11:35;;;;;;;2.80;1.20;;;;;;;13.51;62.78;98039.16;214219;1275;140517;-67
2022/09/28 14:16:39;;;;;;;1.50;1.10;;;;;;;13.37;63.14;98048.58;214962;1275;140553;-66
2022/09/28 14:22:00;;;;;;;7.50;1.20;;;;;;;13.16;63.80;98051.10;213858;1276;140209;-67
2022/09/28 14:27:13;;;;;;;1.10;1.10;;;;;;;12.93;64.29;98064.54;212915;1276;141201;-66
2022/09/28 14:32:33;;;;;;;2.50;1.60;;;;;;;12.69;64.73;98061.84;214686;1276;141779;-67
2022/09/28 14:43:48;;;;;;;1.00;1.00;;;;;;;12.51;66.31;98060.27;215622;1276;140796;-66
2022/09/28 14:48:56;;;;;;;2.70;1.20;;;;;;;12.44;66.98;98066.98;215620;1276;141561;-66
2022/09/28 14:54:03;;;;;;;1.00;1.00;;;;;;;12.42;67.27;98066.44;215762;1276;143047;-66
2022/09/28 14:59:15;;;;;;;2.00;0.90;;;;;;;12.35;67.94;98061.87;215547;1276;141079;-67
2022/09/28 15:04:18;;;;;;;29.00;21.50;;;;;;;12.30;68.15;98063.05;215768;1276;140885;-67
2022/09/28 15:09:32;;;;;;;2.20;1.80;;;;;;;12.21;68.53;98066.64;215251;1276;141077;-66
2022/09/28 15:14:53;;;;;;;1.50;1.40;;;;;;;12.12;68.96;98072.04;213986;1276;142445;-66
2022/09/28 15:20:07;;;;;;;4.80;4.30;;;;;;;12.02;69.77;98074.45;214001;1276;141875;-65
2022/09/28 15:25:20;;;;;;;3.40;3.20;;;;;;;11.93;69.85;98064.08;214377;1276;142132;-66
2022/09/28 15:30:32;;;;;;;7.90;5.80;;;;;;;11.88;70.52;98056.45;213783;1275;141988;-66
2022/09/28 15:35:37;;;;;;;3.10;2.90;;;;;;;11.87;70.88;98055.71;214150;1276;142540;-68
2022/09/28 15:40:40;;;;;;;3.70;3.30;;;;;;;11.74;71.28;98042.95;213272;1276;140075;-65
2022/09/28 15:46:01;;;;;;;4.10;2.90;;;;;;;11.63;71.67;98037.23;213371;1276;140571;-68
2022/09/28 15:51:11;;;;;;;4.30;2.50;;;;;;;11.52;72.00;98030.00;214081;1276;140910;-67
2022/09/28 15:56:18;;;;;;;6.40;3.80;;;;;;;11.41;72.14;98013.34;213124;1276;142079;-65
2022/09/28 16:01:29;;;;;;;2.40;2.20;;;;;;;11.33;72.43;98023.61;213304;1276;140980;-66
2022/09/28 16:06:32;;;;;;;23.10;3.00;;;;;;;11.14;73.02;98028.09;213107;1276;141505;-66
2022/09/28 16:11:40;;;;;;;14.50;3.60;;;;;;;11.03;73.54;98034.14;213748;1276;141136;-67
2022/09/28 16:16:54;;;;;;;3.10;2.80;;;;;;;10.92;73.45;98032.38;213607;1276;143771;-67
2022/09/28 16:22:01;;;;;;;4.20;2.20;;;;;;;10.75;73.94;98036.27;213246;1276;141098;-65
2022/09/28 16:27:29;;;;;;;4.00;2.80;;;;;;;10.71;74.41;98039.55;214647;1276;139983;-67
2022/09/28 16:32:40;;;;;;;3.40;2.70;;;;;;;10.68;74.83;98035.91;214780;1276;141570;-66
2022/09/28 16:37:46;;;;;;;5.00;3.30;;;;;;;10.66;75.03;98037.96;215569;1275;141367;-66
2022/09/28 16:42:55;;;;;;;2.30;2.10;;;;;;;10.62;75.40;98037.50;215071;1276;140515;-64
2022/09/28 16:47:58;;;;;;;5.80;2.40;;;;;;;10.58;75.44;98039.70;215764;1276;142122;-67
2022/09/28 16:58:47;;;;;;;3.50;3.20;;;;;;;10.48;76.15;98041.19;214861;1276;141511;-66
2022/09/28 17:03:52;;;;;;;3.30;3.00;;;;;;;10.50;76.22;98034.89;215407;1276;141782;-66
2022/09/28 17:09:05;;;;;;;4.30;2.60;;;;;;;10.45;76.36;98039.02;215058;1276;140878;-65
2022/09/28 17:14:10;;;;;;;4.80;3.40;;;;;;;10.42;76.65;98035.24;214974;1276;140687;-66
2022/09/28 17:19:24;;;;;;;6.50;4.50;;;;;;;10.42;76.74;98032.48;214501;1277;141862;-66
2022/09/28 17:24:30;;;;;;;3.50;3.20;;;;;;;10.36;76.95;98032.41;214532;1277;140701;-66
2022/09/28 17:29:43;;;;;;;3.80;3.40;;;;;;;10.33;77.07;98025.25;215081;1277;140523;-67
2022/09/28 17:34:49;;;;;;;3.60;2.80;;;;;;;10.31;77.45;98021.64;215172;1276;140405;-66
2022/09/28 17:40:24;;;;;;;3.80;3.30;;;;;;;10.34;77.53;98034.62;214289;1276;141660;-66
2022/09/28 17:45:30;;;;;;;6.30;3.30;;;;;;;10.33;77.74;98038.30;213656;1276;144027;-67
2022/09/28 17:50:34;;;;;;;5.70;4.60;;;;;;;10.28;78.06;98036.94;213158;1277;141735;-66
2022/09/28 17:55:38;;;;;;;4.40;3.90;;;;;;;10.27;78.37;98041.05;214101;1277;141014;-66
2022/09/28 18:00:42;;;;;;;7.80;4.20;;;;;;;10.26;78.30;98042.53;213563;1276;151160;-66
2022/09/28 18:05:49;;;;;;;4.50;2.70;;;;;;;10.28;78.53;98049.45;213741;1275;140940;-66
2022/09/28 18:10:53;;;;;;;5.90;3.30;;;;;;;10.19;78.32;98055.11;214221;1276;140568;-66
2022/09/28 18:16:01;;;;;;;6.10;4.20;;;;;;;10.13;78.61;98057.02;214263;1277;141265;-65
2022/09/28 18:21:06;;;;;;;4.90;3.30;;;;;;;10.10;78.79;98062.05;213920;1276;140893;-66
2022/09/28 18:26:12;;;;;;;4.80;4.30;;;;;;;10.07;78.88;98063.40;213051;1276;142823;-66
2022/09/28 18:31:17;;;;;;;4.60;2.90;;;;;;;10.03;79.17;98064.70;214108;1276;140903;-66
2022/09/28 18:36:28;;;;;;;5.00;3.70;;;;;;;9.99;79.15;98065.89;214075;1277;140791;-66
2022/09/28 18:41:31;;;;;;;5.30;4.00;;;;;;;10.00;79.27;98070.04;214569;1277;141583;-65
2022/09/28 18:46:35;;;;;;;4.40;3.90;;;;;;;9.99;79.33;98074.83;215521;1276;141244;-68
2022/09/28 18:51:37;;;;;;;5.20;4.10;;;;;;;10.07;79.75;98075.97;215904;1277;140659;-69
2022/09/28 18:56:41;;;;;;;4.70;3.70;;;;;;;10.16;79.70;98083.60;214658;1277;142019;-66
2022/09/28 19:01:47;;;;;;;5.30;3.80;;;;;;;10.17;79.52;98088.45;214353;1276;140797;-66
2022/09/28 19:06:53;;;;;;;6.60;4.10;;;;;;;10.08;79.78;98091.46;215822;1276;140180;-66
2022/09/28 19:11:57;;;;;;;5.10;3.90;;;;;;;10.08;80.13;98093.44;214411;1277;140375;-66
2022/09/28 19:17:00;;;;;;;5.50;4.70;;;;;;;10.14;80.22;98094.73;213769;1276;141938;-66
2022/09/28 19:22:07;;;;;;;7.90;5.30;;;;;;;10.18;80.15;98103.14;214156;1277;140559;-66
2022/09/28 19:27:10;;;;;;;7.80;5.90;;;;;;;10.15;79.81;98111.50;213851;1277;140407;-66
2022/09/28 19:32:16;;;;;;;12.70;7.00;;;;;;;10.04;79.85;98110.91;212928;1276;141885;-66
2022/09/28 19:37:20;;;;;;;7.30;5.50;;;;;;;9.87;79.69;98116.10;214363;1276;140795;-66
2022/09/28 19:42:23;;;;;;;8.40;5.90;;;;;;;9.69;79.83;98113.11;213870;1275;141371;-65
2022/09/28 19:47:27;;;;;;;10.30;6.40;;;;;;;9.56;80.05;98113.80;213169;1276;140044;-65
2022/09/28 19:52:30;;;;;;;6.40;5.50;;;;;;;9.46;80.28;98115.52;213645;1276;140234;-66
2022/09/28 19:57:33;;;;;;;7.60;5.80;;;;;;;9.36;80.27;98119.14;213732;1277;140319;-65
2022/09/28 20:02:36;;;;;;;6.50;5.60;;;;;;;9.26;80.48;98125.03;213944;1276;231467;-66
2022/09/28 20:07:39;;;;;;;7.20;5.40;;;;;;;9.19;80.40;98125.89;213263;1276;140563;-65
2022/09/28 20:12:43;;;;;;;8.50;5.80;;;;;;;9.14;80.77;98119.77;213407;1277;143249;-65
2022/09/28 20:17:46;;;;;;;5.60;5.00;;;;;;;9.04;80.89;98116.89;214377;1276;141058;-66
2022/09/28 20:22:49;;;;;;;13.40;6.10;;;;;;;9.00;80.93;98116.08;213554;1275;140709;-65
2022/09/28 20:27:54;;;;;;;6.70;5.60;;;;;;;8.99;80.98;98132.18;213632;1276;140340;-66
2022/09/28 20:32:59;;;;;;;8.70;6.90;;;;;;;8.97;80.90;98147.32;215369;1276;151311;-67
2022/09/28 20:38:07;;;;;;;11.00;7.30;;;;;;;8.93;81.07;98151.73;215546;1276;139805;-67
2022/09/28 20:43:20;;;;;;;10.50;7.60;;;;;;;8.84;81.05;98154.42;214523;1276;141144;-66
2022/09/28 20:48:27;;;;;;;10.50;7.60;;;;;;;8.77;80.91;98155.27;215004;1276;143700;-66
2022/09/28 20:53:34;;;;;;;7.60;5.50;;;;;;;8.67;81.17;98154.21;215965;1276;142004;-66
2022/09/28 20:58:39;;;;;;;8.60;6.20;;;;;;;8.59;81.07;98159.05;215002;1276;140014;-66
2022/09/28 21:03:54;;;;;;;9.20;6.90;;;;;;;8.58;81.32;98158.94;215805;1273;140577;-66
2022/09/28 21:09:00;;;;;;;7.60;6.00;;;;;;;8.53;80.98;98154.59;215475;1276;139983;-67
2022/09/28 21:14:07;;;;;;;11.00;6.50;;;;;;;8.47;81.42;98150.58;214038;1276;142039;-66
2022/09/28 21:19:11;;;;;;;5.10;4.20;;;;;;;8.41;81.42;98165.67;214148;1274;140820;-65
2022/09/28 21:24:14;;;;;;;9.50;6.10;;;;;;;8.35;81.46;98174.35;214364;1276;141327;-66
2022/09/28 21:29:18;;;;;;;7.20;5.30;;;;;;;8.31;81.73;98177.48;213509;1276;141914;-66
2022/09/28 21:34:21;;;;;;;6.90;5.30;;;;;;;8.23;81.95;98185.69;213866;1275;142166;-65
2022/09/28 21:39:25;;;;;;;6.20;5.60;;;;;;;8.17;81.99;98188.36;214311;1275;139686;-66
2022/09/28 21:44:28;;;;;;;9.70;6.40;;;;;;;8.14;82.13;98185.37;213024;1276;141442;-65
2022/09/28 21:49:31;;;;;;;10.60;4.80;;;;;;;8.14;82.37;98184.26;213512;1276;140993;-66
2022/09/28 21:54:36;;;;;;;7.90;5.40;;;;;;;8.10;82.27;98182.10;212736;1276;1087327;-65
2022/09/28 21:59:39;;;;;;;7.40;6.50;;;;;;;8.03;82.18;98186.04;213630;1275;140637;-66
2022/09/28 22:04:42;;;;;;;7.40;6.20;;;;;;;8.03;82.15;98184.77;213844;1276;141955;-65
2022/09/28 22:09:50;;;;;;;6.80;6.00;;;;;;;8.03;82.54;98188.85;213965;1275;140030;-65
2022/09/28 22:14:56;;;;;;;7.60;5.80;;;;;;;8.07;82.50;98185.54;213858;1276;140783;-66
2022/09/28 22:19:59;;;;;;;9.20;6.30;;;;;;;8.13;82.40;98202.56;214558;1276;140693;-65
2022/09/28 22:25:05;;;;;;;6.50;5.30;;;;;;;8.10;82.03;98207.21;213735;1276;139887;-65
2022/09/28 22:30:08;;;;;;;9.60;6.70;;;;;;;7.96;81.76;98212.32;214402;1276;139515;-66
2022/09/28 22:35:11;;;;;;;6.40;5.80;;;;;;;7.86;81.88;98214.05;213640;1276;140062;-65
2022/09/28 22:40:14;;;;;;;8.30;5.70;;;;;;;7.80;82.08;98222.27;213207;1276;140265;-66
2022/09/28 22:45:18;;;;;;;11.10;6.70;;;;;;;7.81;82.06;98223.94;215721;1276;140381;-66
2022/09/28 22:50:20;;;;;;;8.10;5.60;;;;;;;7.79;82.04;98226.15;215828;1276;140544;-66
2022/09/28 22:55:23;;;;;;;25.70;8.10;;;;;;;7.74;82.02;98224.93;215852;1276;139879;-67
2022/09/28 23:00:26;;;;;;;9.40;6.80;;;;;;;7.69;82.17;98236.61;215898;1276;140262;-66
2022/09/28 23:05:30;;;;;;;9.40;5.50;;;;;;;7.61;81.45;98251.88;215163;1276;141462;-66
2022/09/28 23:10:33;;;;;;;7.50;6.30;;;;;;;7.57;81.61;98255.56;215607;1276;142142;-66
2022/09/28 23:15:36;;;;;;;7.80;6.10;;;;;;;7.65;82.17;98256.09;214922;1276;234785;-66
2022/09/28 23:20:38;;;;;;;9.80;7.20;;;;;;;7.69;81.84;98256.45;213641;1276;140034;-65
2022/09/28 23:25:41;;;;;;;8.00;6.70;;;;;;;7.59;81.51;98270.64;213818;1275;140209;-65
2022/09/28 23:30:44;;;;;;;15.40;6.60;;;;;;;7.47;82.08;98261.29;213305;1276;140202;-66
2022/09/28 23:35:46;;;;;;;9.80;6.40;;;;;;;7.46;82.24;98258.15;214206;1276;141610;-66
2022/09/28 23:40:49;;;;;;;7.40;5.20;;;;;;;7.51;82.32;98263.66;213051;1276;141841;-65
2022/09/28 23:45:51;;;;;;;9.00;6.50;;;;;;;7.51;82.15;98271.05;213529;1277;141467;-65
2022/09/28 23:50:54;;;;;;;7.30;6.50;;;;;;;7.43;82.18;98267.14;213131;1276;143043;-65
2022/09/28 23:55:58;;;;;;;7.20;6.10;;;;;;;7.36;81.92;98267.95;213139;1276;140853;-65
